createdAt,value
2023-04-06T00:00:52.858Z,7.90
2023-04-06T00:03:19.890Z,8.13
2023-04-06T00:05:48.369Z,6.20
2023-04-06T00:08:15.268Z,7.35
2023-04-06T00:10:42.207Z,10.20
2023-04-06T00:13:08.922Z,9.90
2023-04-06T00:15:35.702Z,9.20
2023-04-06T00:18:08.258Z,7.28
2023-04-06T00:20:34.996Z,6.50
2023-04-06T00:23:01.821Z,5.25
2023-04-06T00:25:34.016Z,5.50
2023-04-06T00:28:00.721Z,5.80
2023-04-06T00:30:27.375Z,4.93
2023-04-06T00:32:54.064Z,5.75
2023-04-06T00:35:20.927Z,5.43
2023-04-06T00:37:49.119Z,5.13
2023-04-06T00:40:16.473Z,5.93
2023-04-06T00:42:43.223Z,5.43
2023-04-06T00:45:10.761Z,5.75
2023-04-06T00:47:38.777Z,5.75
2023-04-06T00:50:06.252Z,5.57
2023-04-06T00:52:32.995Z,5.68
2023-04-06T00:54:59.663Z,5.55
2023-04-06T00:57:26.436Z,5.45
2023-04-06T00:59:54.151Z,5.20
2023-04-06T01:02:20.961Z,5.63
2023-04-06T01:04:47.734Z,4.80
2023-04-06T01:07:14.402Z,6.13
2023-04-06T01:09:42.785Z,5.45
2023-04-06T01:12:09.637Z,5.13
2023-04-06T01:14:36.377Z,6.03
2023-04-06T01:17:03.353Z,5.47
2023-04-06T01:19:35.201Z,5.30
2023-04-06T01:22:01.905Z,5.63
2023-04-06T01:24:28.717Z,5.75
2023-04-06T01:26:55.481Z,5.43
2023-04-06T01:29:22.236Z,5.40
2023-04-06T01:31:49.196Z,5.65
2023-04-06T01:34:16.395Z,4.90
2023-04-06T01:36:43.373Z,5.15
2023-04-06T01:39:10.483Z,4.88
2023-04-06T01:41:37.497Z,5.07
2023-04-06T01:44:04.323Z,5.45
2023-04-06T01:46:31.322Z,6.47
2023-04-06T01:48:58.217Z,4.55
2023-04-06T01:51:25.946Z,4.72
2023-04-06T01:53:52.844Z,4.82
2023-04-06T01:56:19.690Z,5.25
2023-04-06T01:58:46.514Z,5.28
2023-04-06T02:01:13.315Z,5.10
2023-04-06T02:03:40.161Z,5.40
2023-04-06T02:06:07.220Z,5.95
2023-04-06T02:08:33.981Z,5.40
2023-04-06T02:11:00.831Z,5.40
2023-04-06T02:13:27.668Z,5.47
2023-04-06T02:15:54.501Z,4.88
2023-04-06T02:18:21.662Z,6.80
2023-04-06T02:20:48.429Z,5.47
2023-04-06T02:23:15.700Z,5.03
2023-04-06T02:25:42.684Z,5.45
2023-04-06T02:28:09.481Z,6.20
2023-04-06T02:30:36.354Z,6.10
2023-04-06T02:33:03.740Z,6.72
2023-04-06T02:35:32.078Z,6.55
2023-04-06T02:37:58.898Z,7.07
2023-04-06T02:40:34.284Z,6.22
2023-04-06T02:43:01.228Z,7.22
2023-04-06T02:45:28.043Z,6.78
2023-04-06T02:47:54.776Z,6.13
2023-04-06T02:50:21.554Z,6.65
2023-04-06T02:52:48.218Z,6.38
2023-04-06T02:55:15.017Z,6.40
2023-04-06T02:57:53.994Z,5.70
2023-04-06T03:00:20.712Z,6.25
2023-04-06T03:02:47.545Z,6.35
2023-04-06T03:05:14.376Z,5.40
2023-04-06T03:07:41.155Z,5.85
2023-04-06T03:10:08.442Z,5.80
2023-04-06T03:12:35.190Z,6.05
2023-04-06T03:15:16.504Z,5.57
2023-04-06T03:17:43.308Z,6.28
2023-04-06T03:20:10.409Z,6.25
2023-04-06T03:22:37.076Z,5.88
2023-04-06T03:25:04.035Z,5.93
2023-04-06T03:27:30.954Z,5.85
2023-04-06T03:29:57.622Z,5.40
2023-04-06T03:32:24.445Z,5.43
2023-04-06T03:34:51.179Z,6.38
2023-04-06T03:37:17.948Z,5.80
2023-04-06T03:39:44.693Z,5.72
2023-04-06T03:42:11.427Z,6.32
2023-04-06T03:44:38.160Z,4.97
2023-04-06T03:47:05.029Z,5.40
2023-04-06T03:49:31.741Z,6.22
2023-04-06T03:51:58.387Z,5.15
2023-04-06T03:54:25.133Z,5.32
2023-04-06T03:56:51.865Z,5.35
2023-04-06T03:59:18.635Z,5.82
2023-04-06T04:01:45.635Z,5.85
2023-04-06T04:04:18.383Z,6.15
2023-04-06T04:06:45.290Z,6.28
2023-04-06T04:09:12.071Z,5.88
2023-04-06T04:11:38.757Z,5.20
2023-04-06T04:14:05.785Z,5.45
2023-04-06T04:16:33.213Z,5.45
2023-04-06T04:19:00.038Z,5.97
2023-04-06T04:21:31.677Z,6.75
2023-04-06T04:23:58.508Z,4.18
2023-04-06T04:26:25.604Z,5.30
2023-04-06T04:28:52.297Z,7.53
2023-04-06T04:31:20.934Z,6.85
2023-04-06T04:33:47.621Z,7.25
2023-04-06T04:36:14.410Z,7.03
2023-04-06T04:38:41.256Z,5.85
2023-04-06T04:41:07.974Z,6.30
2023-04-06T04:43:34.654Z,5.47
2023-04-06T04:46:01.474Z,6.13
2023-04-06T04:48:28.242Z,5.95
2023-04-06T04:50:56.186Z,6.05
2023-04-06T04:53:28.505Z,5.65
2023-04-06T04:58:21.966Z,4.60
2023-04-06T05:00:48.684Z,4.43
2023-04-06T05:03:25.414Z,5.18
2023-04-06T05:05:52.307Z,5.28
2023-04-06T05:08:19.158Z,5.47
2023-04-06T05:10:46.400Z,5.72
2023-04-06T05:13:13.228Z,7.00
2023-04-06T05:15:41.074Z,7.15
2023-04-06T05:18:10.969Z,7.10
2023-04-06T05:20:39.803Z,6.95
2023-04-06T05:23:06.569Z,6.68
2023-04-06T05:25:39.082Z,6.05
2023-04-06T05:28:05.841Z,6.05
2023-04-06T05:30:32.696Z,5.72
2023-04-06T05:33:00.463Z,5.68
2023-04-06T05:35:27.348Z,5.50
2023-04-06T05:37:54.161Z,5.63
2023-04-06T05:40:20.845Z,6.00
2023-04-06T05:42:47.913Z,5.57
2023-04-06T05:45:17.745Z,6.63
2023-04-06T05:47:45.247Z,8.70
2023-04-06T05:50:12.926Z,8.43
2023-04-06T05:52:39.794Z,6.85
2023-04-06T05:55:07.988Z,6.40
2023-04-06T05:57:35.802Z,7.07
2023-04-06T06:00:04.537Z,6.40
2023-04-06T06:02:43.411Z,6.22
2023-04-06T06:05:11.555Z,7.75
2023-04-06T06:07:38.317Z,7.97
2023-04-06T06:10:05.374Z,7.30
2023-04-06T06:12:32.123Z,8.35
2023-04-06T06:14:58.844Z,7.15
2023-04-06T06:17:25.674Z,6.50
2023-04-06T06:19:52.439Z,7.15
2023-04-06T06:22:19.247Z,8.13
2023-04-06T06:24:45.970Z,9.23
2023-04-06T06:27:12.757Z,6.07
2023-04-06T06:29:48.361Z,9.40
2023-04-06T06:32:15.733Z,14.30
2023-04-06T06:34:42.396Z,8.07
2023-04-06T06:37:09.097Z,5.28
2023-04-06T06:39:35.834Z,5.38
2023-04-06T06:42:02.725Z,5.35
2023-04-06T06:44:29.627Z,4.28
2023-04-06T06:46:59.241Z,5.65
2023-04-06T06:49:25.946Z,5.82
2023-04-06T06:51:52.632Z,5.15
2023-04-06T06:54:19.463Z,5.75
2023-04-06T06:56:46.872Z,5.22
2023-04-06T06:59:13.606Z,7.15
2023-04-06T07:01:40.378Z,6.28
2023-04-06T07:04:08.938Z,5.95
2023-04-06T07:06:39.185Z,5.82
2023-04-06T07:09:06.131Z,5.28
2023-04-06T07:11:32.999Z,5.32
2023-04-06T07:13:59.730Z,6.13
2023-04-06T07:16:26.536Z,5.30
2023-04-06T07:18:53.274Z,5.45
2023-04-06T07:21:20.042Z,5.10
2023-04-06T07:23:48.956Z,5.32
2023-04-06T07:26:15.776Z,5.05
2023-04-06T07:28:42.609Z,5.65
2023-04-06T07:31:09.358Z,5.10
2023-04-06T07:33:36.116Z,5.55
2023-04-06T07:36:03.008Z,4.75
2023-04-06T07:38:29.976Z,5.50
2023-04-06T07:40:56.828Z,4.97
2023-04-06T07:43:23.573Z,6.03
2023-04-06T07:45:50.568Z,6.30
2023-04-06T07:48:17.496Z,6.03
2023-04-06T07:50:44.345Z,6.13
2023-04-06T07:53:11.427Z,5.43
2023-04-06T07:55:38.366Z,5.78
2023-04-06T07:58:05.193Z,5.47
2023-04-06T08:00:32.128Z,5.97
2023-04-06T08:02:59.192Z,5.32
2023-04-06T08:05:26.124Z,5.03
2023-04-06T08:07:52.850Z,5.88
2023-04-06T08:10:19.565Z,5.32
2023-04-06T08:12:46.326Z,5.15
2023-04-06T08:15:13.103Z,5.82
2023-04-06T08:17:39.860Z,5.22
2023-04-06T08:20:07.406Z,5.03
2023-04-06T08:22:34.083Z,5.55
2023-04-06T08:25:01.083Z,5.47
2023-04-06T08:27:27.957Z,5.13
2023-04-06T08:29:54.657Z,5.13
2023-04-06T08:32:21.455Z,5.50
2023-04-06T08:34:48.317Z,5.30
2023-04-06T08:37:15.103Z,5.45
2023-04-06T08:39:41.760Z,5.32
2023-04-06T08:42:17.603Z,4.43
2023-04-06T08:44:45.376Z,5.13
2023-04-06T08:47:12.487Z,4.60
2023-04-06T08:49:42.363Z,5.65
2023-04-06T08:52:09.237Z,5.03
2023-04-06T08:54:36.029Z,5.07
2023-04-06T08:57:03.769Z,5.35
2023-04-06T08:59:31.300Z,5.55
2023-04-06T09:01:58.663Z,6.10
2023-04-06T09:04:25.822Z,6.57
2023-04-06T09:06:53.340Z,7.53
2023-04-06T09:09:24.778Z,8.38
2023-04-06T09:11:52.892Z,7.68
2023-04-06T09:14:38.495Z,7.72
2023-04-06T09:17:06.184Z,6.15
2023-04-06T09:19:33.303Z,6.35
2023-04-06T09:22:08.241Z,6.22
2023-04-06T09:24:46.467Z,6.53
2023-04-06T09:27:14.598Z,6.80
2023-04-06T09:29:42.742Z,6.03
2023-04-06T09:32:17.457Z,6.57
2023-04-06T09:34:44.353Z,7.20
2023-04-06T09:37:19.136Z,7.40
2023-04-06T09:39:46.882Z,6.10
2023-04-06T09:42:25.724Z,7.05
2023-04-06T09:44:52.491Z,6.10
2023-04-06T09:47:20.796Z,6.50
2023-04-06T09:49:48.980Z,6.70
2023-04-06T09:52:17.438Z,5.47
2023-04-06T09:54:52.795Z,7.18
2023-04-06T09:57:26.252Z,6.05
2023-04-06T10:00:03.140Z,6.57
2023-04-06T10:02:56.350Z,6.93
2023-04-06T10:05:41.117Z,6.38
2023-04-06T10:08:11.132Z,6.35
2023-04-06T10:10:38.709Z,7.43
2023-04-06T10:13:06.144Z,6.47
2023-04-06T10:15:34.187Z,10.00
2023-04-06T10:18:01.763Z,10.68
2023-04-06T10:20:37.834Z,7.05
2023-04-06T10:23:16.811Z,6.50
2023-04-06T10:26:14.445Z,6.32
2023-04-06T10:28:43.129Z,6.18
2023-04-06T10:31:13.185Z,7.15
2023-04-06T10:33:41.519Z,7.10
2023-04-06T10:36:18.764Z,6.10
2023-04-06T10:38:46.302Z,5.68
2023-04-06T10:41:13.634Z,6.07
2023-04-06T10:43:42.723Z,5.78
2023-04-06T10:46:12.817Z,6.15
2023-04-06T10:48:44.797Z,5.55
2023-04-06T10:51:13.735Z,5.47
2023-04-06T10:53:44.501Z,5.45
2023-04-06T10:56:15.546Z,5.15
2023-04-06T10:59:17.636Z,5.00
2023-04-06T11:01:46.661Z,5.40
2023-04-06T11:04:31.283Z,5.45
2023-04-06T11:06:58.985Z,5.43
2023-04-06T11:09:35.859Z,5.47
2023-04-06T11:12:02.779Z,5.55
2023-04-06T11:14:29.427Z,5.03
2023-04-06T11:16:56.396Z,5.65
2023-04-06T11:19:23.255Z,5.78
2023-04-06T11:21:50.392Z,4.65
2023-04-06T11:24:23.788Z,5.68
2023-04-06T11:27:01.874Z,4.90
2023-04-06T11:29:30.851Z,4.78
2023-04-06T11:32:12.811Z,4.25
2023-04-06T11:34:41.903Z,4.53
2023-04-06T11:37:13.260Z,4.80
2023-04-06T11:39:42.239Z,4.95
2023-04-06T11:42:09.557Z,4.85
2023-04-06T11:44:37.383Z,4.63
2023-04-06T11:47:05.878Z,4.70
2023-04-06T11:49:34.867Z,4.80
2023-04-06T11:52:02.114Z,4.57
2023-04-06T11:54:36.737Z,4.75
2023-04-06T11:57:04.802Z,5.07
2023-04-06T11:59:34.602Z,6.03
2023-04-06T12:02:03.739Z,6.35
2023-04-06T12:04:30.938Z,6.38
2023-04-06T12:06:58.121Z,7.72
2023-04-06T12:09:25.211Z,6.97
2023-04-06T12:11:52.141Z,6.85
2023-04-06T12:14:18.959Z,6.80
2023-04-06T12:16:45.785Z,6.82
2023-04-06T12:19:20.980Z,6.15
2023-04-06T12:21:47.739Z,6.85
2023-04-06T12:24:14.408Z,5.97
2023-04-06T12:26:42.441Z,5.78
2023-04-06T12:29:09.306Z,5.65
2023-04-06T12:31:37.446Z,5.75
2023-04-06T12:34:04.483Z,6.50
2023-04-06T12:36:32.400Z,7.20
2023-04-06T12:38:59.900Z,6.07
2023-04-06T12:41:26.973Z,6.55
2023-04-06T12:43:53.902Z,7.13
2023-04-06T12:46:21.774Z,6.38
2023-04-06T12:48:48.986Z,8.07
2023-04-06T12:51:16.095Z,7.20
2023-04-06T12:53:43.603Z,8.73
2023-04-06T12:56:18.450Z,6.30
2023-04-06T12:58:46.536Z,6.65
2023-04-06T13:01:14.181Z,7.20
2023-04-06T13:03:42.811Z,6.90
2023-04-06T13:06:10.993Z,7.13
2023-04-06T13:08:39.288Z,6.95
2023-04-06T13:11:09.165Z,7.30
2023-04-06T13:13:37.263Z,6.60
2023-04-06T13:16:07.133Z,7.88
2023-04-06T13:18:35.312Z,9.07
2023-04-06T13:21:02.185Z,6.15
2023-04-06T13:23:29.164Z,6.38
2023-04-06T13:26:04.004Z,6.85
2023-04-06T13:28:31.710Z,5.90
2023-04-06T13:31:00.474Z,7.50
2023-04-06T13:33:27.830Z,6.38
2023-04-06T13:35:54.915Z,5.70
2023-04-06T13:38:22.120Z,6.07
2023-04-06T13:40:50.818Z,5.65
2023-04-06T13:43:20.431Z,6.10
2023-04-06T13:45:55.908Z,5.40
2023-04-06T13:48:22.875Z,4.90
2023-04-06T13:50:49.667Z,4.60
2023-04-06T13:53:16.481Z,5.20
2023-04-06T13:55:43.236Z,4.97
2023-04-06T13:58:10.189Z,5.97
2023-04-06T14:00:37.864Z,5.63
2023-04-06T14:03:05.110Z,5.95
2023-04-06T14:05:33.164Z,5.05
2023-04-06T14:07:59.821Z,5.00
2023-04-06T14:10:28.484Z,5.50
2023-04-06T14:12:55.524Z,4.88
2023-04-06T14:15:23.500Z,4.95
2023-04-06T14:17:50.879Z,5.22
2023-04-06T14:20:17.558Z,5.70
2023-04-06T14:22:44.385Z,5.18
2023-04-06T14:25:12.307Z,5.32
2023-04-06T14:27:39.368Z,5.60
2023-04-06T14:30:06.736Z,6.03
2023-04-06T14:32:33.565Z,6.22
2023-04-06T14:35:00.519Z,5.93
2023-04-06T14:37:27.342Z,6.30
2023-04-06T14:39:53.977Z,6.30
2023-04-06T14:42:20.722Z,6.28
2023-04-06T14:44:47.498Z,5.63
2023-04-06T14:47:16.594Z,5.88
2023-04-06T14:49:43.396Z,5.95
2023-04-06T14:52:10.084Z,6.43
2023-04-06T14:54:36.774Z,5.95
2023-04-06T14:57:04.381Z,4.53
2023-04-06T14:59:35.150Z,4.63
2023-04-06T15:02:04.081Z,5.55
2023-04-06T15:04:31.548Z,5.88
2023-04-06T15:06:58.438Z,5.03
2023-04-06T15:09:25.212Z,5.35
2023-04-06T15:11:51.932Z,6.03
2023-04-06T15:14:18.804Z,4.72
2023-04-06T15:16:45.445Z,5.43
2023-04-06T15:19:12.420Z,4.90
2023-04-06T15:21:40.240Z,4.47
2023-04-06T15:24:09.457Z,4.80
2023-04-06T15:26:39.081Z,4.50
2023-04-06T15:29:06.216Z,4.75
2023-04-06T15:34:20.799Z,4.82
2023-04-06T15:36:47.930Z,4.85
2023-04-06T15:39:14.700Z,4.00
2023-04-06T15:41:41.386Z,4.35
2023-04-06T15:44:08.142Z,4.00
2023-04-06T15:46:34.904Z,5.45
2023-04-06T15:49:01.579Z,5.20
2023-04-06T15:51:30.052Z,5.18
2023-04-06T15:53:57.041Z,4.10
2023-04-06T15:56:23.780Z,4.30
2023-04-06T15:58:50.568Z,4.10
2023-04-06T16:01:19.247Z,4.72
2023-04-06T16:03:46.582Z,4.30
2023-04-06T16:06:13.393Z,4.40
2023-04-06T16:08:40.833Z,4.63
2023-04-06T16:11:07.896Z,6.40
2023-04-06T16:13:35.648Z,4.97
2023-04-06T16:16:03.877Z,5.70
2023-04-06T16:18:31.217Z,5.38
2023-04-06T16:20:58.403Z,5.75
2023-04-06T16:23:25.366Z,5.63
2023-04-06T16:25:54.239Z,5.57
2023-04-06T16:28:23.142Z,5.47
2023-04-06T16:30:49.904Z,5.97
2023-04-06T16:33:19.280Z,5.85
2023-04-06T16:35:46.805Z,5.50
2023-04-06T16:38:14.397Z,4.95
2023-04-06T16:40:47.111Z,5.20
2023-04-06T16:43:14.190Z,4.60
2023-04-06T16:45:41.255Z,5.35
2023-04-06T16:48:08.525Z,5.13
2023-04-06T16:50:36.436Z,4.55
2023-04-06T16:53:03.142Z,4.80
2023-04-06T16:55:29.874Z,4.53
2023-04-06T16:57:56.659Z,5.93
2023-04-06T17:00:23.671Z,5.32
2023-04-06T17:02:50.614Z,4.70
2023-04-06T17:05:21.807Z,5.13
2023-04-06T17:07:48.618Z,4.88
2023-04-06T17:10:15.905Z,6.88
2023-04-06T17:12:43.174Z,5.30
2023-04-06T17:15:10.264Z,5.10
2023-04-06T17:17:43.100Z,5.03
2023-04-06T17:20:10.393Z,4.45
2023-04-06T17:22:37.122Z,4.90
2023-04-06T17:25:05.447Z,4.07
2023-04-06T17:27:32.500Z,3.67
2023-04-06T17:30:03.044Z,3.97
2023-04-06T17:32:29.828Z,4.40
2023-04-06T17:34:56.757Z,4.00
2023-04-06T17:37:23.428Z,4.50
2023-04-06T17:39:50.372Z,3.80
2023-04-06T17:42:18.192Z,3.22
2023-04-06T17:44:52.615Z,3.00
2023-04-06T17:47:20.282Z,3.13
2023-04-06T17:49:47.219Z,4.60
2023-04-06T17:52:13.909Z,3.95
2023-04-06T17:54:40.556Z,3.17
2023-04-06T17:57:08.411Z,4.25
2023-04-06T17:59:35.278Z,4.80
2023-04-06T18:02:04.090Z,2.90
2023-04-06T18:04:30.877Z,2.78
2023-04-06T18:07:06.552Z,2.63
2023-04-06T18:09:33.161Z,2.78
2023-04-06T18:11:59.758Z,2.92
2023-04-06T18:14:26.440Z,4.32
2023-04-06T18:16:53.189Z,3.30
2023-04-06T18:19:19.943Z,3.80
2023-04-06T18:21:46.725Z,3.45
2023-04-06T18:24:27.395Z,3.00
2023-04-06T18:27:00.729Z,3.15
2023-04-06T18:29:27.562Z,4.07
2023-04-06T18:31:55.204Z,3.70
2023-04-06T18:34:22.926Z,3.13
2023-04-06T18:36:49.742Z,3.53
2023-04-06T18:39:16.712Z,4.05
2023-04-06T18:41:43.589Z,3.55
2023-04-06T18:44:10.439Z,4.43
2023-04-06T18:46:37.631Z,3.50
2023-04-06T18:49:05.081Z,4.35
2023-04-06T18:51:32.634Z,3.30
2023-04-06T18:54:01.428Z,3.63
2023-04-06T18:56:28.369Z,4.15
2023-04-06T18:58:55.730Z,4.35
2023-04-06T19:01:27.736Z,3.80
2023-04-06T19:03:56.146Z,4.65
2023-04-06T19:06:24.249Z,4.07
2023-04-06T19:08:51.215Z,4.13
2023-04-06T19:11:18.090Z,3.95
2023-04-06T19:13:49.981Z,5.07
2023-04-06T19:16:17.300Z,4.82
2023-04-06T19:18:45.375Z,5.47
2023-04-06T19:21:17.041Z,4.88
2023-04-06T19:23:48.577Z,4.93
2023-04-06T19:26:17.113Z,4.72
2023-04-06T19:28:44.509Z,4.28
2023-04-06T19:31:12.990Z,4.43
2023-04-06T19:36:32.926Z,5.13
2023-04-06T19:39:01.200Z,5.97
2023-04-06T19:41:27.876Z,5.05
2023-04-06T19:43:54.622Z,5.10
2023-04-06T19:46:21.643Z,4.53
2023-04-06T19:48:48.442Z,5.05
2023-04-06T19:51:15.479Z,5.57
2023-04-06T19:53:42.258Z,5.50
2023-04-06T19:56:10.198Z,4.65
2023-04-06T19:58:38.327Z,4.95
2023-04-06T20:01:10.686Z,4.65
2023-04-06T20:03:37.579Z,4.72
2023-04-06T20:06:04.419Z,4.68
2023-04-06T20:08:31.032Z,5.80
2023-04-06T20:11:02.418Z,4.80
2023-04-06T20:13:30.312Z,4.43
2023-04-06T20:15:57.317Z,4.80
2023-04-06T20:18:23.995Z,12.15
2023-04-06T20:20:50.817Z,17.90
2023-04-06T20:23:20.720Z,8.20
2023-04-06T20:25:47.460Z,8.05
2023-04-06T20:28:14.201Z,7.13
2023-04-06T20:30:40.824Z,7.40
2023-04-06T20:33:07.626Z,6.82
2023-04-06T20:35:35.018Z,6.22
2023-04-06T20:38:02.258Z,5.70
2023-04-06T20:40:28.898Z,4.95
2023-04-06T20:42:56.155Z,5.32
2023-04-06T20:45:23.501Z,6.50
2023-04-06T20:47:54.293Z,7.55
2023-04-06T20:50:21.904Z,7.00
2023-04-06T20:52:49.552Z,6.38
2023-04-06T20:55:16.363Z,6.28
2023-04-06T20:57:45.001Z,5.63
2023-04-06T21:00:12.634Z,6.63
2023-04-06T21:02:39.620Z,6.25
2023-04-06T21:05:08.661Z,6.28
2023-04-06T21:07:35.361Z,6.40
2023-04-06T21:10:02.581Z,6.75
2023-04-06T21:12:29.312Z,7.53
2023-04-06T21:14:56.348Z,7.03
2023-04-06T21:17:23.289Z,7.00
2023-04-06T21:19:53.282Z,6.53
2023-04-06T21:22:20.036Z,6.75
2023-04-06T21:24:46.894Z,5.80
2023-04-06T21:27:13.492Z,6.85
2023-04-06T21:29:40.252Z,7.03
2023-04-06T21:32:07.018Z,6.97
2023-04-06T21:34:33.657Z,7.18
2023-04-06T21:37:00.438Z,7.75
2023-04-06T21:39:27.102Z,7.50
2023-04-06T21:41:53.772Z,7.43
2023-04-06T21:44:21.031Z,7.72
2023-04-06T21:46:47.930Z,6.97
2023-04-06T21:49:14.606Z,6.68
2023-04-06T21:51:41.722Z,6.88
2023-04-06T21:54:08.413Z,7.60
2023-04-06T21:56:35.109Z,7.70
2023-04-06T21:59:02.026Z,7.15
2023-04-06T22:01:28.800Z,7.80
2023-04-06T22:03:55.903Z,8.52
2023-04-06T22:06:24.950Z,7.97
2023-04-06T22:08:51.613Z,8.30
2023-04-06T22:11:18.222Z,8.15
2023-04-06T22:13:45.377Z,8.05
2023-04-06T22:16:12.120Z,8.15
2023-04-06T22:18:39.223Z,10.18
2023-04-06T22:21:07.004Z,8.88
2023-04-06T22:23:33.812Z,10.55
2023-04-06T22:26:00.578Z,9.45
2023-04-06T22:28:27.360Z,9.35
2023-04-06T22:30:54.062Z,10.23
2023-04-06T22:33:20.927Z,9.20
2023-04-06T22:35:47.730Z,9.77
2023-04-06T22:38:14.419Z,9.32
2023-04-06T22:40:41.042Z,10.32
2023-04-06T22:43:07.689Z,9.68
2023-04-06T22:45:34.393Z,8.77
2023-04-06T22:48:01.293Z,9.43
2023-04-06T22:50:27.988Z,10.43
2023-04-06T22:52:54.901Z,10.05
2023-04-06T22:55:21.807Z,10.02
2023-04-06T22:57:48.634Z,10.15
2023-04-06T23:00:15.736Z,10.80
2023-04-06T23:02:42.584Z,10.15
2023-04-06T23:05:09.566Z,10.27
2023-04-06T23:07:36.277Z,10.45
2023-04-06T23:10:03.281Z,10.35
2023-04-06T23:12:30.068Z,9.75
2023-04-06T23:14:56.888Z,10.75
2023-04-06T23:17:23.688Z,10.65
2023-04-06T23:19:51.359Z,10.20
2023-04-06T23:22:18.031Z,9.65
2023-04-06T23:24:44.734Z,9.43
2023-04-06T23:27:11.378Z,10.02
2023-04-06T23:29:38.052Z,10.95
2023-04-06T23:32:04.913Z,9.80
2023-04-06T23:34:31.564Z,9.98
2023-04-06T23:37:01.224Z,10.02
2023-04-06T23:39:28.127Z,10.48
2023-04-06T23:41:54.887Z,10.50
2023-04-06T23:44:21.845Z,10.07
2023-04-06T23:46:48.583Z,11.43
2023-04-06T23:49:15.396Z,12.15
2023-04-06T23:51:42.128Z,10.35
2023-04-06T23:54:09.559Z,11.38
2023-04-06T23:56:36.864Z,10.90
2023-04-06T23:59:03.647Z,10.65
